sensor_id;sensor_type;location;lat;lon;timestamp;temperature;humidity
15036;DHT22;7615;48.574;13.474;2023-07-24T00:00:46;20.20;99.90
15036;DHT22;7615;48.574;13.474;2023-07-24T00:03:15;20.00;99.90
15036;DHT22;7615;48.574;13.474;2023-07-24T00:05:42;19.90;99.90
15036;DHT22;7615;48.574;13.474;2023-07-24T00:08:09;19.90;99.90
15036;DHT22;7615;48.574;13.474;2023-07-24T00:10:35;19.80;99.90
15036;DHT22;7615;48.574;13.474;2023-07-24T00:13:08;19.80;99.90
15036;DHT22;7615;48.574;13.474;2023-07-24T00:15:38;19.80;99.90
15036;DHT22;7615;48.574;13.474;2023-07-24T00:18:09;19.70;99.90
15036;DHT22;7615;48.574;13.474;2023-07-24T00:20:37;19.60;99.90
15036;DHT22;7615;48.574;13.474;2023-07-24T00:23:13;19.60;99.90
15036;DHT22;7615;48.574;13.474;2023-07-24T00:25:47;19.60;99.90
15036;DHT22;7615;48.574;13.474;2023-07-24T00:33:11;19.40;99.90
15036;DHT22;7615;48.574;13.474;2023-07-24T00:35:38;19.50;99.90
15036;DHT22;7615;48.574;13.474;2023-07-24T00:38:04;19.50;99.90
15036;DHT22;7615;48.574;13.474;2023-07-24T00:40:31;19.50;99.90
15036;DHT22;7615;48.574;13.474;2023-07-24T00:42:58;19.50;99.90
15036;DHT22;7615;48.574;13.474;2023-07-24T00:45:26;19.50;99.90
15036;DHT22;7615;48.574;13.474;2023-07-24T00:47:53;19.40;99.90
15036;DHT22;7615;48.574;13.474;2023-07-24T00:50:21;19.40;99.90
15036;DHT22;7615;48.574;13.474;2023-07-24T00:52:48;19.40;99.90
15036;DHT22;7615;48.574;13.474;2023-07-24T00:55:15;19.30;99.90
15036;DHT22;7615;48.574;13.474;2023-07-24T00:57:43;19.20;99.90
15036;DHT22;7615;48.574;13.474;2023-07-24T01:00:11;19.20;99.90
15036;DHT22;7615;48.574;13.474;2023-07-24T01:02:38;19.20;99.90
15036;DHT22;7615;48.574;13.474;2023-07-24T01:05:06;19.10;99.90
15036;DHT22;7615;48.574;13.474;2023-07-24T01:07:35;19.10;99.90
15036;DHT22;7615;48.574;13.474;2023-07-24T01:10:02;19.00;99.90
15036;DHT22;7615;48.574;13.474;2023-07-24T01:12:33;19.00;99.90
15036;DHT22;7615;48.574;13.474;2023-07-24T01:15:06;19.10;99.90
15036;DHT22;7615;48.574;13.474;2023-07-24T01:17:41;19.10;99.90
15036;DHT22;7615;48.574;13.474;2023-07-24T01:20:11;19.00;99.90
15036;DHT22;7615;48.574;13.474;2023-07-24T01:22:50;18.90;99.90
15036;DHT22;7615;48.574;13.474;2023-07-24T01:25:23;18.90;99.90
15036;DHT22;7615;48.574;13.474;2023-07-24T01:27:56;18.90;99.90
15036;DHT22;7615;48.574;13.474;2023-07-24T01:30:23;18.80;99.90
15036;DHT22;7615;48.574;13.474;2023-07-24T01:32:50;18.80;99.90
15036;DHT22;7615;48.574;13.474;2023-07-24T01:35:17;18.80;99.90
15036;DHT22;7615;48.574;13.474;2023-07-24T01:37:44;18.80;99.90
15036;DHT22;7615;48.574;13.474;2023-07-24T01:40:12;18.80;99.90
15036;DHT22;7615;48.574;13.474;2023-07-24T01:42:40;18.80;99.90
15036;DHT22;7615;48.574;13.474;2023-07-24T01:45:09;18.80;99.90
15036;DHT22;7615;48.574;13.474;2023-07-24T01:47:36;18.80;99.90
15036;DHT22;7615;48.574;13.474;2023-07-24T01:50:04;18.80;99.90
15036;DHT22;7615;48.574;13.474;2023-07-24T01:52:31;18.80;99.90
15036;DHT22;7615;48.574;13.474;2023-07-24T01:54:58;18.80;99.90
15036;DHT22;7615;48.574;13.474;2023-07-24T01:57:25;18.70;99.90
15036;DHT22;7615;48.574;13.474;2023-07-24T01:59:52;18.70;99.90
15036;DHT22;7615;48.574;13.474;2023-07-24T02:02:20;18.70;99.90
15036;DHT22;7615;48.574;13.474;2023-07-24T02:04:47;18.70;99.90
15036;DHT22;7615;48.574;13.474;2023-07-24T02:07:14;18.60;99.90
15036;DHT22;7615;48.574;13.474;2023-07-24T02:09:41;18.60;99.90
15036;DHT22;7615;48.574;13.474;2023-07-24T02:12:08;18.50;99.90
15036;DHT22;7615;48.574;13.474;2023-07-24T02:14:35;18.50;99.90
15036;DHT22;7615;48.574;13.474;2023-07-24T02:17:02;18.40;99.90
15036;DHT22;7615;48.574;13.474;2023-07-24T02:19:30;18.40;99.90
15036;DHT22;7615;48.574;13.474;2023-07-24T02:21:57;18.30;99.90
15036;DHT22;7615;48.574;13.474;2023-07-24T02:26:51;18.30;99.90
15036;DHT22;7615;48.574;13.474;2023-07-24T02:29:18;18.30;99.90
15036;DHT22;7615;48.574;13.474;2023-07-24T02:31:45;18.20;99.90
15036;DHT22;7615;48.574;13.474;2023-07-24T02:34:12;18.30;99.90
15036;DHT22;7615;48.574;13.474;2023-07-24T02:36:41;18.40;99.90
15036;DHT22;7615;48.574;13.474;2023-07-24T02:39:08;18.40;99.90
15036;DHT22;7615;48.574;13.474;2023-07-24T02:41:35;18.50;99.90
15036;DHT22;7615;48.574;13.474;2023-07-24T02:44:02;18.40;99.90
15036;DHT22;7615;48.574;13.474;2023-07-24T02:46:29;18.40;99.90
15036;DHT22;7615;48.574;13.474;2023-07-24T02:48:56;18.50;99.90
15036;DHT22;7615;48.574;13.474;2023-07-24T02:51:23;18.50;99.90
15036;DHT22;7615;48.574;13.474;2023-07-24T02:53:54;18.40;99.90
15036;DHT22;7615;48.574;13.474;2023-07-24T02:56:21;18.40;99.90
15036;DHT22;7615;48.574;13.474;2023-07-24T02:58:48;18.40;99.90
15036;DHT22;7615;48.574;13.474;2023-07-24T03:01:15;18.40;99.90
15036;DHT22;7615;48.574;13.474;2023-07-24T03:03:42;18.30;99.90
15036;DHT22;7615;48.574;13.474;2023-07-24T03:06:09;18.30;99.90
15036;DHT22;7615;48.574;13.474;2023-07-24T03:08:36;18.20;99.90
15036;DHT22;7615;48.574;13.474;2023-07-24T03:11:07;18.30;99.90
15036;DHT22;7615;48.574;13.474;2023-07-24T03:13:34;18.30;99.90
15036;DHT22;7615;48.574;13.474;2023-07-24T03:16:01;18.30;99.90
15036;DHT22;7615;48.574;13.474;2023-07-24T03:18:28;18.40;99.90
15036;DHT22;7615;48.574;13.474;2023-07-24T03:20:57;18.40;99.90
15036;DHT22;7615;48.574;13.474;2023-07-24T03:23:24;18.50;99.90
15036;DHT22;7615;48.574;13.474;2023-07-24T03:25:51;18.40;99.90
15036;DHT22;7615;48.574;13.474;2023-07-24T03:28:19;18.30;99.90
15036;DHT22;7615;48.574;13.474;2023-07-24T03:30:46;18.30;99.90
15036;DHT22;7615;48.574;13.474;2023-07-24T03:33:16;18.20;99.90
15036;DHT22;7615;48.574;13.474;2023-07-24T03:35:43;18.20;99.90
15036;DHT22;7615;48.574;13.474;2023-07-24T03:43:04;18.10;99.90
15036;DHT22;7615;48.574;13.474;2023-07-24T03:45:32;18.30;99.90
15036;DHT22;7615;48.574;13.474;2023-07-24T03:47:59;18.40;99.90
15036;DHT22;7615;48.574;13.474;2023-07-24T03:50:28;18.40;99.90
15036;DHT22;7615;48.574;13.474;2023-07-24T03:52:55;18.40;99.90
15036;DHT22;7615;48.574;13.474;2023-07-24T03:55:22;18.40;99.90
15036;DHT22;7615;48.574;13.474;2023-07-24T03:57:49;18.30;99.90
15036;DHT22;7615;48.574;13.474;2023-07-24T04:00:16;18.30;99.90
15036;DHT22;7615;48.574;13.474;2023-07-24T04:02:46;18.30;99.90
15036;DHT22;7615;48.574;13.474;2023-07-24T04:05:13;18.40;99.90
15036;DHT22;7615;48.574;13.474;2023-07-24T04:07:40;18.30;99.90
15036;DHT22;7615;48.574;13.474;2023-07-24T04:10:08;18.40;99.90
15036;DHT22;7615;48.574;13.474;2023-07-24T04:12:35;18.30;99.90
15036;DHT22;7615;48.574;13.474;2023-07-24T04:15:02;18.40;99.90
15036;DHT22;7615;48.574;13.474;2023-07-24T04:17:29;18.40;99.90
15036;DHT22;7615;48.574;13.474;2023-07-24T04:19:59;18.50;99.90
15036;DHT22;7615;48.574;13.474;2023-07-24T04:22:26;18.60;99.90
15036;DHT22;7615;48.574;13.474;2023-07-24T04:24:53;18.60;99.90
15036;DHT22;7615;48.574;13.474;2023-07-24T04:27:20;18.80;99.90
15036;DHT22;7615;48.574;13.474;2023-07-24T04:29:47;18.80;99.90
15036;DHT22;7615;48.574;13.474;2023-07-24T04:32:13;18.90;99.90
15036;DHT22;7615;48.574;13.474;2023-07-24T04:34:40;18.90;99.90
15036;DHT22;7615;48.574;13.474;2023-07-24T04:37:09;18.90;99.90
15036;DHT22;7615;48.574;13.474;2023-07-24T04:39:38;18.90;99.90
15036;DHT22;7615;48.574;13.474;2023-07-24T04:42:06;19.00;99.90
15036;DHT22;7615;48.574;13.474;2023-07-24T04:44:33;18.80;99.90
15036;DHT22;7615;48.574;13.474;2023-07-24T04:47:00;19.00;99.90
15036;DHT22;7615;48.574;13.474;2023-07-24T04:49:30;19.10;99.90
15036;DHT22;7615;48.574;13.474;2023-07-24T04:51:58;19.20;99.90
15036;DHT22;7615;48.574;13.474;2023-07-24T04:54:34;19.20;99.90
15036;DHT22;7615;48.574;13.474;2023-07-24T04:57:01;19.10;99.90
15036;DHT22;7615;48.574;13.474;2023-07-24T04:59:28;19.20;99.90
15036;DHT22;7615;48.574;13.474;2023-07-24T05:01:55;19.20;99.90
15036;DHT22;7615;48.574;13.474;2023-07-24T05:04:22;19.20;99.90
15036;DHT22;7615;48.574;13.474;2023-07-24T05:06:49;19.20;99.90
15036;DHT22;7615;48.574;13.474;2023-07-24T05:09:17;19.00;99.90
15036;DHT22;7615;48.574;13.474;2023-07-24T05:11:46;19.00;99.90
15036;DHT22;7615;48.574;13.474;2023-07-24T05:14:16;19.00;99.90
15036;DHT22;7615;48.574;13.474;2023-07-24T05:16:43;19.10;99.90
15036;DHT22;7615;48.574;13.474;2023-07-24T05:19:10;19.30;99.90
15036;DHT22;7615;48.574;13.474;2023-07-24T05:21:37;19.30;99.90
15036;DHT22;7615;48.574;13.474;2023-07-24T05:24:04;19.40;99.90
15036;DHT22;7615;48.574;13.474;2023-07-24T05:26:31;19.40;99.90
15036;DHT22;7615;48.574;13.474;2023-07-24T05:28:59;19.60;99.90
15036;DHT22;7615;48.574;13.474;2023-07-24T05:31:26;19.70;99.90
15036;DHT22;7615;48.574;13.474;2023-07-24T05:33:53;19.70;99.90
15036;DHT22;7615;48.574;13.474;2023-07-24T05:36:20;19.80;99.90
15036;DHT22;7615;48.574;13.474;2023-07-24T05:38:47;19.80;99.90
15036;DHT22;7615;48.574;13.474;2023-07-24T05:41:14;19.80;99.90
15036;DHT22;7615;48.574;13.474;2023-07-24T05:43:41;19.80;99.90
15036;DHT22;7615;48.574;13.474;2023-07-24T05:46:09;19.90;99.90
15036;DHT22;7615;48.574;13.474;2023-07-24T05:51:04;19.70;99.90
15036;DHT22;7615;48.574;13.474;2023-07-24T05:53:32;19.70;99.90
15036;DHT22;7615;48.574;13.474;2023-07-24T05:56:00;19.80;99.90
15036;DHT22;7615;48.574;13.474;2023-07-24T05:58:27;19.70;99.90
15036;DHT22;7615;48.574;13.474;2023-07-24T06:00:54;19.90;99.90
15036;DHT22;7615;48.574;13.474;2023-07-24T07:01:44;22.10;99.90
15036;DHT22;7615;48.574;13.474;2023-07-24T07:04:10;22.30;99.90
15036;DHT22;7615;48.574;13.474;2023-07-24T07:06:37;22.50;99.90
15036;DHT22;7615;48.574;13.474;2023-07-24T07:09:04;22.60;99.90
15036;DHT22;7615;48.574;13.474;2023-07-24T07:11:33;22.50;99.90
15036;DHT22;7615;48.574;13.474;2023-07-24T07:14:00;22.50;99.90
15036;DHT22;7615;48.574;13.474;2023-07-24T07:16:27;22.40;99.90
15036;DHT22;7615;48.574;13.474;2023-07-24T07:18:54;22.60;99.90
15036;DHT22;7615;48.574;13.474;2023-07-24T07:21:20;22.70;99.90
15036;DHT22;7615;48.574;13.474;2023-07-24T07:23:47;22.80;99.90
15036;DHT22;7615;48.574;13.474;2023-07-24T07:26:14;22.90;99.90
15036;DHT22;7615;48.574;13.474;2023-07-24T07:28:42;22.70;99.90
15036;DHT22;7615;48.574;13.474;2023-07-24T07:31:11;23.00;99.90
15036;DHT22;7615;48.574;13.474;2023-07-24T07:33:38;23.20;99.90
15036;DHT22;7615;48.574;13.474;2023-07-24T07:36:05;23.30;99.90
15036;DHT22;7615;48.574;13.474;2023-07-24T07:38:32;23.30;99.90
15036;DHT22;7615;48.574;13.474;2023-07-24T07:41:03;23.40;99.90
15036;DHT22;7615;48.574;13.474;2023-07-24T07:43:30;23.40;99.90
15036;DHT22;7615;48.574;13.474;2023-07-24T07:46:01;23.50;99.90
15036;DHT22;7615;48.574;13.474;2023-07-24T07:48:28;23.60;99.90
15036;DHT22;7615;48.574;13.474;2023-07-24T07:50:55;23.60;99.90
15036;DHT22;7615;48.574;13.474;2023-07-24T07:53:22;23.40;99.90
15036;DHT22;7615;48.574;13.474;2023-07-24T07:55:56;23.50;99.90
15036;DHT22;7615;48.574;13.474;2023-07-24T07:58:23;23.40;99.90
15036;DHT22;7615;48.574;13.474;2023-07-24T08:00:50;23.40;99.90
15036;DHT22;7615;48.574;13.474;2023-07-24T08:03:18;23.40;99.90
15036;DHT22;7615;48.574;13.474;2023-07-24T08:05:45;23.50;99.90
15036;DHT22;7615;48.574;13.474;2023-07-24T08:08:12;23.60;99.90
15036;DHT22;7615;48.574;13.474;2023-07-24T08:13:06;23.80;99.90
15036;DHT22;7615;48.574;13.474;2023-07-24T08:57:41;27.90;99.90
15036;DHT22;7615;48.574;13.474;2023-07-24T09:00:09;27.80;99.90
15036;DHT22;7615;48.574;13.474;2023-07-24T09:02:36;27.60;99.90
15036;DHT22;7615;48.574;13.474;2023-07-24T09:05:04;26.90;99.90
15036;DHT22;7615;48.574;13.474;2023-07-24T09:07:31;26.70;99.90
15036;DHT22;7615;48.574;13.474;2023-07-24T09:09:58;26.60;99.90
15036;DHT22;7615;48.574;13.474;2023-07-24T09:12:26;26.40;99.90
15036;DHT22;7615;48.574;13.474;2023-07-24T09:15:03;26.20;99.90
15036;DHT22;7615;48.574;13.474;2023-07-24T09:17:30;26.10;99.90
15036;DHT22;7615;48.574;13.474;2023-07-24T09:19:57;26.10;99.90
15036;DHT22;7615;48.574;13.474;2023-07-24T09:22:24;26.00;99.90
15036;DHT22;7615;48.574;13.474;2023-07-24T11:42:01;25.40;99.90
15036;DHT22;7615;48.574;13.474;2023-07-24T11:44:28;25.50;99.90
15036;DHT22;7615;48.574;13.474;2023-07-24T11:47:02;25.70;99.90
15036;DHT22;7615;48.574;13.474;2023-07-24T11:49:29;25.80;99.90
15036;DHT22;7615;48.574;13.474;2023-07-24T11:52:00;26.10;99.90
15036;DHT22;7615;48.574;13.474;2023-07-24T11:54:27;26.10;99.90
15036;DHT22;7615;48.574;13.474;2023-07-24T11:56:54;26.50;99.90
15036;DHT22;7615;48.574;13.474;2023-07-24T11:59:24;26.90;99.90
15036;DHT22;7615;48.574;13.474;2023-07-24T12:01:51;27.10;99.90
15036;DHT22;7615;48.574;13.474;2023-07-24T12:04:18;27.20;99.90
15036;DHT22;7615;48.574;13.474;2023-07-24T12:06:46;27.20;99.90
15036;DHT22;7615;48.574;13.474;2023-07-24T12:09:13;27.20;99.90
15036;DHT22;7615;48.574;13.474;2023-07-24T12:11:40;27.20;99.90
15036;DHT22;7615;48.574;13.474;2023-07-24T12:14:07;27.30;99.90
15036;DHT22;7615;48.574;13.474;2023-07-24T12:16:36;27.20;99.90
15036;DHT22;7615;48.574;13.474;2023-07-24T12:19:03;27.20;99.90
15036;DHT22;7615;48.574;13.474;2023-07-24T12:21:31;27.10;99.90
15036;DHT22;7615;48.574;13.474;2023-07-24T12:23:58;27.10;99.90
15036;DHT22;7615;48.574;13.474;2023-07-24T12:26:25;27.30;99.90
15036;DHT22;7615;48.574;13.474;2023-07-24T12:28:53;27.50;99.90
15036;DHT22;7615;48.574;13.474;2023-07-24T12:31:20;27.60;99.90
15036;DHT22;7615;48.574;13.474;2023-07-24T12:33:48;27.60;99.90
15036;DHT22;7615;48.574;13.474;2023-07-24T12:36:15;27.80;99.90
15036;DHT22;7615;48.574;13.474;2023-07-24T12:38:42;27.90;99.90
15036;DHT22;7615;48.574;13.474;2023-07-24T12:41:09;27.90;99.90
15036;DHT22;7615;48.574;13.474;2023-07-24T12:43:35;27.90;99.90
15036;DHT22;7615;48.574;13.474;2023-07-24T12:46:03;28.30;99.90
15036;DHT22;7615;48.574;13.474;2023-07-24T13:08:13;28.50;99.90
15036;DHT22;7615;48.574;13.474;2023-07-24T13:59:51;26.50;99.90
15036;DHT22;7615;48.574;13.474;2023-07-24T14:02:18;26.80;99.90
15036;DHT22;7615;48.574;13.474;2023-07-24T14:07:12;26.00;99.90
15036;DHT22;7615;48.574;13.474;2023-07-24T14:09:39;25.40;99.90
15036;DHT22;7615;48.574;13.474;2023-07-24T14:12:07;26.50;99.90
15036;DHT22;7615;48.574;13.474;2023-07-24T14:14:33;25.90;99.90
15036;DHT22;7615;48.574;13.474;2023-07-24T14:17:02;25.80;99.90
15036;DHT22;7615;48.574;13.474;2023-07-24T14:19:29;26.00;99.90
15036;DHT22;7615;48.574;13.474;2023-07-24T14:21:56;26.20;99.90
15036;DHT22;7615;48.574;13.474;2023-07-24T14:24:23;26.20;99.90
15036;DHT22;7615;48.574;13.474;2023-07-24T14:26:49;26.10;99.90
15036;DHT22;7615;48.574;13.474;2023-07-24T14:29:16;25.90;99.90
15036;DHT22;7615;48.574;13.474;2023-07-24T14:31:43;25.70;99.90
15036;DHT22;7615;48.574;13.474;2023-07-24T14:34:11;25.90;99.90
15036;DHT22;7615;48.574;13.474;2023-07-24T14:36:39;25.20;99.90
15036;DHT22;7615;48.574;13.474;2023-07-24T14:39:05;25.30;99.90
15036;DHT22;7615;48.574;13.474;2023-07-24T14:41:33;25.60;99.90
15036;DHT22;7615;48.574;13.474;2023-07-24T14:44:00;25.50;99.90
15036;DHT22;7615;48.574;13.474;2023-07-24T14:46:27;25.40;99.90
15036;DHT22;7615;48.574;13.474;2023-07-24T14:48:54;25.40;99.90
15036;DHT22;7615;48.574;13.474;2023-07-24T14:51:25;24.80;99.90
15036;DHT22;7615;48.574;13.474;2023-07-24T14:53:52;24.70;99.90
15036;DHT22;7615;48.574;13.474;2023-07-24T14:56:19;24.60;99.90
15036;DHT22;7615;48.574;13.474;2023-07-24T14:58:47;24.90;99.90
15036;DHT22;7615;48.574;13.474;2023-07-24T15:01:14;24.10;99.90
15036;DHT22;7615;48.574;13.474;2023-07-24T15:03:40;23.90;99.90
15036;DHT22;7615;48.574;13.474;2023-07-24T15:06:07;24.10;99.90
15036;DHT22;7615;48.574;13.474;2023-07-24T15:08:35;23.90;99.90
15036;DHT22;7615;48.574;13.474;2023-07-24T15:11:03;23.90;99.90
15036;DHT22;7615;48.574;13.474;2023-07-24T15:13:30;23.90;99.90
15036;DHT22;7615;48.574;13.474;2023-07-24T15:15:56;23.90;99.90
15036;DHT22;7615;48.574;13.474;2023-07-24T15:18:24;23.90;99.90
15036;DHT22;7615;48.574;13.474;2023-07-24T15:20:50;23.80;99.90
15036;DHT22;7615;48.574;13.474;2023-07-24T15:23:19;23.80;99.90
15036;DHT22;7615;48.574;13.474;2023-07-24T15:25:49;23.80;99.90
15036;DHT22;7615;48.574;13.474;2023-07-24T15:28:16;23.80;99.90
15036;DHT22;7615;48.574;13.474;2023-07-24T15:30:43;23.90;99.90
15036;DHT22;7615;48.574;13.474;2023-07-24T15:33:11;24.10;99.90
15036;DHT22;7615;48.574;13.474;2023-07-24T15:35:38;24.30;99.90
15036;DHT22;7615;48.574;13.474;2023-07-24T15:38:05;24.30;99.90
15036;DHT22;7615;48.574;13.474;2023-07-24T15:40:33;24.40;99.90
15036;DHT22;7615;48.574;13.474;2023-07-24T15:43:02;24.50;99.90
15036;DHT22;7615;48.574;13.474;2023-07-24T15:45:29;24.60;99.90
15036;DHT22;7615;48.574;13.474;2023-07-24T15:47:56;24.50;99.90
15036;DHT22;7615;48.574;13.474;2023-07-24T15:50:23;24.50;99.90
15036;DHT22;7615;48.574;13.474;2023-07-24T15:52:50;24.50;99.90
15036;DHT22;7615;48.574;13.474;2023-07-24T15:55:17;24.50;99.90
15036;DHT22;7615;48.574;13.474;2023-07-24T15:57:44;24.50;99.90
15036;DHT22;7615;48.574;13.474;2023-07-24T16:00:13;24.60;99.90
15036;DHT22;7615;48.574;13.474;2023-07-24T16:02:40;24.50;99.90
15036;DHT22;7615;48.574;13.474;2023-07-24T16:05:16;24.40;99.90
15036;DHT22;7615;48.574;13.474;2023-07-24T16:07:43;24.50;99.90
15036;DHT22;7615;48.574;13.474;2023-07-24T16:10:11;24.60;99.90
15036;DHT22;7615;48.574;13.474;2023-07-24T16:12:38;24.70;99.90
15036;DHT22;7615;48.574;13.474;2023-07-24T16:15:06;24.80;99.90
15036;DHT22;7615;48.574;13.474;2023-07-24T16:17:35;25.00;99.90
15036;DHT22;7615;48.574;13.474;2023-07-24T16:20:02;25.10;99.90
15036;DHT22;7615;48.574;13.474;2023-07-24T16:22:29;25.20;99.90
15036;DHT22;7615;48.574;13.474;2023-07-24T16:24:56;25.40;99.90
15036;DHT22;7615;48.574;13.474;2023-07-24T16:27:23;25.20;99.90
15036;DHT22;7615;48.574;13.474;2023-07-24T16:29:50;24.90;99.90
15036;DHT22;7615;48.574;13.474;2023-07-24T16:32:17;25.00;99.90
15036;DHT22;7615;48.574;13.474;2023-07-24T16:34:45;24.90;99.90
15036;DHT22;7615;48.574;13.474;2023-07-24T16:37:12;24.80;99.90
15036;DHT22;7615;48.574;13.474;2023-07-24T16:39:39;24.80;99.90
15036;DHT22;7615;48.574;13.474;2023-07-24T16:42:06;24.70;99.90
15036;DHT22;7615;48.574;13.474;2023-07-24T16:44:34;24.90;99.90
15036;DHT22;7615;48.574;13.474;2023-07-24T16:47:01;24.80;99.90
15036;DHT22;7615;48.574;13.474;2023-07-24T16:49:27;24.70;99.90
15036;DHT22;7615;48.574;13.474;2023-07-24T16:51:56;24.60;99.90
15036;DHT22;7615;48.574;13.474;2023-07-24T16:54:25;24.50;99.90
15036;DHT22;7615;48.574;13.474;2023-07-24T16:56:52;24.50;99.90
15036;DHT22;7615;48.574;13.474;2023-07-24T16:59:19;24.60;99.90
15036;DHT22;7615;48.574;13.474;2023-07-24T17:01:46;24.50;99.90
15036;DHT22;7615;48.574;13.474;2023-07-24T17:04:13;24.50;99.90
15036;DHT22;7615;48.574;13.474;2023-07-24T17:06:40;24.50;99.90
15036;DHT22;7615;48.574;13.474;2023-07-24T17:09:10;24.50;99.90
15036;DHT22;7615;48.574;13.474;2023-07-24T17:11:38;24.50;99.90
15036;DHT22;7615;48.574;13.474;2023-07-24T17:14:05;24.40;99.90
15036;DHT22;7615;48.574;13.474;2023-07-24T17:16:32;24.20;99.90
15036;DHT22;7615;48.574;13.474;2023-07-24T17:18:59;24.10;99.90
15036;DHT22;7615;48.574;13.474;2023-07-24T17:21:26;24.00;99.90
15036;DHT22;7615;48.574;13.474;2023-07-24T17:23:52;24.00;99.90
15036;DHT22;7615;48.574;13.474;2023-07-24T17:26:21;24.00;99.90
15036;DHT22;7615;48.574;13.474;2023-07-24T17:28:47;24.00;99.90
15036;DHT22;7615;48.574;13.474;2023-07-24T17:31:14;24.00;99.90
15036;DHT22;7615;48.574;13.474;2023-07-24T17:33:41;24.00;99.90
15036;DHT22;7615;48.574;13.474;2023-07-24T17:36:08;24.00;99.90
15036;DHT22;7615;48.574;13.474;2023-07-24T17:38:35;24.00;99.90
15036;DHT22;7615;48.574;13.474;2023-07-24T17:41:02;24.00;99.90
15036;DHT22;7615;48.574;13.474;2023-07-24T17:43:33;24.00;99.90
15036;DHT22;7615;48.574;13.474;2023-07-24T17:46:00;24.00;99.90
15036;DHT22;7615;48.574;13.474;2023-07-24T17:48:27;23.90;99.90
15036;DHT22;7615;48.574;13.474;2023-07-24T17:50:54;23.90;99.90
15036;DHT22;7615;48.574;13.474;2023-07-24T17:53:21;23.90;99.90
15036;DHT22;7615;48.574;13.474;2023-07-24T17:55:48;23.90;99.90
15036;DHT22;7615;48.574;13.474;2023-07-24T17:58:15;23.90;99.90
15036;DHT22;7615;48.574;13.474;2023-07-24T18:00:43;23.90;99.90
15036;DHT22;7615;48.574;13.474;2023-07-24T18:05:40;23.90;99.90
15036;DHT22;7615;48.574;13.474;2023-07-24T18:08:07;23.80;99.90
15036;DHT22;7615;48.574;13.474;2023-07-24T18:10:35;23.70;99.90
15036;DHT22;7615;48.574;13.474;2023-07-24T18:13:02;23.80;99.90
15036;DHT22;7615;48.574;13.474;2023-07-24T18:15:28;23.70;99.90
15036;DHT22;7615;48.574;13.474;2023-07-24T18:17:57;23.60;99.90
15036;DHT22;7615;48.574;13.474;2023-07-24T18:20:24;23.50;99.90
15036;DHT22;7615;48.574;13.474;2023-07-24T18:22:50;23.40;99.90
15036;DHT22;7615;48.574;13.474;2023-07-24T18:25:18;23.40;99.90
15036;DHT22;7615;48.574;13.474;2023-07-24T18:27:45;23.40;99.90
15036;DHT22;7615;48.574;13.474;2023-07-24T18:30:12;23.40;99.90
15036;DHT22;7615;48.574;13.474;2023-07-24T18:32:38;23.40;99.90
15036;DHT22;7615;48.574;13.474;2023-07-24T18:35:07;23.50;99.90
15036;DHT22;7615;48.574;13.474;2023-07-24T18:37:34;23.40;99.90
15036;DHT22;7615;48.574;13.474;2023-07-24T18:40:01;23.40;99.90
15036;DHT22;7615;48.574;13.474;2023-07-24T18:42:28;23.30;99.90
15036;DHT22;7615;48.574;13.474;2023-07-24T18:44:55;23.20;99.90
15036;DHT22;7615;48.574;13.474;2023-07-24T18:47:21;23.20;99.90
15036;DHT22;7615;48.574;13.474;2023-07-24T18:49:48;23.20;99.90
15036;DHT22;7615;48.574;13.474;2023-07-24T18:52:16;23.10;99.90
15036;DHT22;7615;48.574;13.474;2023-07-24T18:54:43;23.10;99.90
15036;DHT22;7615;48.574;13.474;2023-07-24T18:57:10;23.10;99.90
15036;DHT22;7615;48.574;13.474;2023-07-24T18:59:37;23.00;99.90
15036;DHT22;7615;48.574;13.474;2023-07-24T19:02:04;23.00;99.90
15036;DHT22;7615;48.574;13.474;2023-07-24T19:04:31;23.00;99.90
15036;DHT22;7615;48.574;13.474;2023-07-24T19:06:58;22.90;99.90
15036;DHT22;7615;48.574;13.474;2023-07-24T19:09:26;22.90;99.90
15036;DHT22;7615;48.574;13.474;2023-07-24T19:11:53;22.80;99.90
15036;DHT22;7615;48.574;13.474;2023-07-24T19:14:20;22.80;99.90
15036;DHT22;7615;48.574;13.474;2023-07-24T19:16:46;22.80;99.90
15036;DHT22;7615;48.574;13.474;2023-07-24T19:19:13;22.70;99.90
15036;DHT22;7615;48.574;13.474;2023-07-24T19:21:40;22.60;99.90
15036;DHT22;7615;48.574;13.474;2023-07-24T19:24:07;22.50;99.90
15036;DHT22;7615;48.574;13.474;2023-07-24T19:26:37;22.40;99.90
15036;DHT22;7615;48.574;13.474;2023-07-24T19:29:03;22.40;99.90
15036;DHT22;7615;48.574;13.474;2023-07-24T19:31:30;22.40;99.90
15036;DHT22;7615;48.574;13.474;2023-07-24T19:33:57;22.30;99.90
15036;DHT22;7615;48.574;13.474;2023-07-24T19:36:24;22.30;99.90
15036;DHT22;7615;48.574;13.474;2023-07-24T19:38:51;22.20;99.90
15036;DHT22;7615;48.574;13.474;2023-07-24T19:41:18;22.20;99.90
15036;DHT22;7615;48.574;13.474;2023-07-24T19:43:46;22.20;99.90
15036;DHT22;7615;48.574;13.474;2023-07-24T19:46:14;22.20;99.90
15036;DHT22;7615;48.574;13.474;2023-07-24T19:48:40;22.10;99.90
15036;DHT22;7615;48.574;13.474;2023-07-24T19:51:07;22.10;99.90
15036;DHT22;7615;48.574;13.474;2023-07-24T19:53:34;22.10;99.90
15036;DHT22;7615;48.574;13.474;2023-07-24T19:56:01;22.10;99.90
15036;DHT22;7615;48.574;13.474;2023-07-24T19:58:28;22.00;99.90
15036;DHT22;7615;48.574;13.474;2023-07-24T20:00:56;21.90;99.90
15036;DHT22;7615;48.574;13.474;2023-07-24T20:03:24;21.90;99.90
15036;DHT22;7615;48.574;13.474;2023-07-24T20:05:52;22.00;99.90
15036;DHT22;7615;48.574;13.474;2023-07-24T20:08:20;21.90;99.90
15036;DHT22;7615;48.574;13.474;2023-07-24T20:13:14;21.90;99.90
15036;DHT22;7615;48.574;13.474;2023-07-24T20:15:41;21.90;99.90
15036;DHT22;7615;48.574;13.474;2023-07-24T20:18:09;21.80;99.90
15036;DHT22;7615;48.574;13.474;2023-07-24T20:20:36;21.80;99.90
15036;DHT22;7615;48.574;13.474;2023-07-24T20:23:03;21.80;99.90
15036;DHT22;7615;48.574;13.474;2023-07-24T20:25:30;21.80;99.90
15036;DHT22;7615;48.574;13.474;2023-07-24T20:27:57;21.80;99.90
15036;DHT22;7615;48.574;13.474;2023-07-24T20:30:24;21.70;99.90
15036;DHT22;7615;48.574;13.474;2023-07-24T20:32:51;21.60;99.90
15036;DHT22;7615;48.574;13.474;2023-07-24T20:35:19;21.60;99.90
15036;DHT22;7615;48.574;13.474;2023-07-24T20:37:46;22.50;99.90
15036;DHT22;7615;48.574;13.474;2023-07-24T20:40:15;21.50;99.90
15036;DHT22;7615;48.574;13.474;2023-07-24T20:42:43;21.50;99.90
15036;DHT22;7615;48.574;13.474;2023-07-24T20:45:10;21.40;99.90
15036;DHT22;7615;48.574;13.474;2023-07-24T20:47:37;21.40;99.90
15036;DHT22;7615;48.574;13.474;2023-07-24T20:50:05;21.40;99.90
15036;DHT22;7615;48.574;13.474;2023-07-24T20:52:33;21.40;99.90
15036;DHT22;7615;48.574;13.474;2023-07-24T20:55:00;21.40;99.90
15036;DHT22;7615;48.574;13.474;2023-07-24T20:57:27;21.40;99.90
15036;DHT22;7615;48.574;13.474;2023-07-24T20:59:54;21.50;99.90
15036;DHT22;7615;48.574;13.474;2023-07-24T21:02:21;21.50;99.90